createdAt,value
2017-11-25T00:00:54.908Z,10.07
2017-11-25T00:01:54.628Z,10.06
2017-11-25T00:02:54.876Z,10.02
2017-11-25T00:03:54.624Z,10.02
2017-11-25T00:04:54.868Z,10.05
2017-11-25T00:05:54.857Z,9.97
2017-11-25T00:06:54.702Z,10.02
2017-11-25T00:07:54.937Z,9.82
2017-11-25T00:08:54.932Z,9.85
2017-11-25T00:09:54.561Z,9.88
2017-11-25T00:10:54.815Z,9.9
2017-11-25T00:11:54.902Z,9.91
2017-11-25T00:12:54.796Z,9.9
2017-11-25T00:13:54.530Z,9.88
2017-11-25T00:14:54.520Z,9.94
2017-11-25T00:15:54.781Z,9.92
2017-11-25T00:16:54.767Z,9.88
2017-11-25T00:17:54.757Z,9.92
2017-11-25T00:18:54.762Z,9.91
2017-11-25T00:19:54.483Z,9.88
2017-11-25T00:20:54.730Z,9.95
2017-11-25T00:21:54.828Z,9.95
2017-11-25T00:22:54.460Z,10
2017-11-25T00:23:54.719Z,9.97
2017-11-25T00:24:54.704Z,9.97
2017-11-25T00:25:54.694Z,9.94
2017-11-25T00:26:54.681Z,10.03
2017-11-25T00:27:54.413Z,10.03
2017-11-25T00:28:54.773Z,10.02
2017-11-25T00:29:54.395Z,10.06
2017-11-25T00:30:54.653Z,10.07
2017-11-25T00:31:54.382Z,10.09
2017-11-25T00:32:54.474Z,10.06
2017-11-25T00:33:54.362Z,10.13
2017-11-25T00:34:54.614Z,10.05
2017-11-25T00:35:54.615Z,10.06
2017-11-25T00:36:54.601Z,10.13
2017-11-25T00:37:54.696Z,10.07
2017-11-25T00:38:54.424Z,10.1
2017-11-25T00:39:54.314Z,10.06
2017-11-25T00:40:54.305Z,10.06
2017-11-25T00:41:54.566Z,10.12
2017-11-25T00:42:54.547Z,10.15
2017-11-25T00:43:54.541Z,10.1
2017-11-25T00:44:54.637Z,10.05
2017-11-25T00:45:54.265Z,10.07
2017-11-25T00:46:54.524Z,10.05
2017-11-25T00:47:54.617Z,10.07
2017-11-25T00:48:54.508Z,10.15
2017-11-25T00:49:54.238Z,10.06
2017-11-25T00:50:54.486Z,10.13
2017-11-25T00:51:54.215Z,10.06
2017-11-25T00:52:54.479Z,10.12
2017-11-25T00:53:54.467Z,10.1
2017-11-25T00:54:54.461Z,10.18
2017-11-25T00:55:54.385Z,10.17
2017-11-25T00:56:54.437Z,10.15
2017-11-25T00:57:54.422Z,10.17
2017-11-25T00:58:54.415Z,10.21
2017-11-25T00:59:54.420Z,10.15
2017-11-25T01:00:54.398Z,10.13
2017-11-25T01:01:54.503Z,10.12
2017-11-25T01:02:54.487Z,10.17
2017-11-25T01:03:54.114Z,10.15
2017-11-25T01:04:54.209Z,10.12
2017-11-25T01:05:54.379Z,10.13
2017-11-25T01:06:54.355Z,10.18
2017-11-25T01:07:53.823Z,10.18
2017-11-25T01:08:54.331Z,10.17
2017-11-25T01:09:54.080Z,10.15
2017-11-25T01:10:54.318Z,10.15
2017-11-25T01:11:54.310Z,10.1
2017-11-25T01:12:54.044Z,10.17
2017-11-25T01:13:54.297Z,10.24
2017-11-25T01:14:54.301Z,10.23
2017-11-25T01:15:54.285Z,10.21
2017-11-25T01:16:54.011Z,10.23
2017-11-25T01:17:54.104Z,10.2
2017-11-25T01:18:54.253Z,10.17
2017-11-25T01:19:54.251Z,10.18
2017-11-25T01:20:54.242Z,10.13
2017-11-25T01:21:53.969Z,10.21
2017-11-25T01:22:54.253Z,10.17
2017-11-25T01:23:54.210Z,10.2
2017-11-25T01:24:53.943Z,10.15
2017-11-25T01:25:53.953Z,10.2
2017-11-25T01:26:54.184Z,10.18
2017-11-25T01:27:54.182Z,10.21
2017-11-25T01:28:53.919Z,10.21
2017-11-25T01:29:54.169Z,10.13
2017-11-25T01:30:53.891Z,10.2
2017-11-25T01:31:54.144Z,10.17
2017-11-25T01:32:54.136Z,10.21
2017-11-25T01:33:54.131Z,10.18
2017-11-25T01:34:53.860Z,10.17
2017-11-25T01:35:54.143Z,10.18
2017-11-25T01:36:54.105Z,10.1
2017-11-25T01:37:54.122Z,10.21
2017-11-25T01:38:54.186Z,10.15
2017-11-25T01:39:54.080Z,10.13
2017-11-25T01:40:54.069Z,10.18
2017-11-25T01:41:54.063Z,10.07
2017-11-25T01:42:53.798Z,10.2
2017-11-25T01:43:54.050Z,10.1
2017-11-25T01:44:54.033Z,10.17
2017-11-25T01:45:54.050Z,10.12
2017-11-25T01:46:54.019Z,10.17
2017-11-25T01:47:53.752Z,10.09
2017-11-25T01:48:54.014Z,10.15
2017-11-25T01:49:54.093Z,10.23
2017-11-25T01:50:53.469Z,10.2
2017-11-25T01:51:53.460Z,10.12
2017-11-25T01:52:53.977Z,10.13
2017-11-25T01:53:53.805Z,10.18
2017-11-25T01:54:53.695Z,10.18
2017-11-25T01:55:53.788Z,10.21
2017-11-25T01:56:53.933Z,10.15
2017-11-25T01:57:53.687Z,10.17
2017-11-25T01:58:53.666Z,10.15
2017-11-25T01:59:53.663Z,10.21
2017-11-25T02:00:53.912Z,10.13
2017-11-25T02:01:53.636Z,10.23
2017-11-25T02:02:53.888Z,10.25
2017-11-25T02:03:53.887Z,10.3
2017-11-25T02:04:53.609Z,10.31
2017-11-25T02:05:53.704Z,10.25
2017-11-25T02:06:53.694Z,10.18
2017-11-25T02:07:53.588Z,10.3
2017-11-25T02:08:53.578Z,10.23
2017-11-25T02:09:53.861Z,10.17
2017-11-25T02:10:53.561Z,10.18
2017-11-25T02:11:53.833Z,10.25
2017-11-25T02:12:53.806Z,10.21
2017-11-25T02:13:53.540Z,10.15
2017-11-25T02:14:53.529Z,10.18
2017-11-25T02:15:53.784Z,10.09
2017-11-25T02:16:53.529Z,10.09
2017-11-25T02:17:53.869Z,10.09
2017-11-25T02:18:53.756Z,10.13
2017-11-25T02:19:53.754Z,10.1
2017-11-25T02:20:53.751Z,10.06
2017-11-25T02:21:53.473Z,10.12
2017-11-25T02:22:53.729Z,10.15
2017-11-25T02:23:53.714Z,10.07
2017-11-25T02:24:53.712Z,10.12
2017-11-25T02:25:53.701Z,10.13
2017-11-25T02:26:53.695Z,10.12
2017-11-25T02:27:53.784Z,10.15
2017-11-25T02:28:53.415Z,10.07
2017-11-25T02:29:53.674Z,10.15
2017-11-25T02:30:53.666Z,10.09
2017-11-25T02:31:53.665Z,10.07
2017-11-25T02:32:53.649Z,10.17
2017-11-25T02:33:53.637Z,10.07
2017-11-25T02:34:53.638Z,10.06
2017-11-25T02:35:53.629Z,10.07
2017-11-25T02:36:53.364Z,10.06
2017-11-25T02:37:53.605Z,10.09
2017-11-25T02:38:53.336Z,10.02
2017-11-25T02:39:53.320Z,10.06
2017-11-25T02:40:53.581Z,10.03
2017-11-25T02:41:53.565Z,10.05
2017-11-25T02:42:53.569Z,9.99
2017-11-25T02:43:53.562Z,10
2017-11-25T02:44:53.544Z,9.95
2017-11-25T02:45:53.646Z,9.97
2017-11-25T02:46:53.536Z,9.95
2017-11-25T02:47:53.525Z,9.92
2017-11-25T02:48:53.514Z,9.91
2017-11-25T02:49:53.243Z,9.95
2017-11-25T02:50:53.503Z,9.95
2017-11-25T02:51:53.543Z,9.87
2017-11-25T02:52:53.584Z,9.91
2017-11-25T02:53:53.478Z,9.84
2017-11-25T02:54:53.463Z,9.87
2017-11-25T02:55:53.455Z,9.88
2017-11-25T02:56:53.184Z,9.91
2017-11-25T02:57:53.176Z,9.9
2017-11-25T02:58:53.426Z,9.85
2017-11-25T02:59:53.161Z,9.87
2017-11-25T03:00:53.149Z,9.84
2017-11-25T03:01:53.503Z,9.85
2017-11-25T03:02:53.129Z,9.88
2017-11-25T03:03:53.124Z,9.92
2017-11-25T03:04:53.380Z,9.88
2017-11-25T03:05:53.374Z,9.9
2017-11-25T03:06:53.369Z,9.85
2017-11-25T03:07:53.094Z,9.76
2017-11-25T03:08:53.442Z,9.84
2017-11-25T03:09:53.344Z,9.74
2017-11-25T03:10:53.178Z,9.82
2017-11-25T03:11:53.357Z,9.74
2017-11-25T03:12:53.048Z,9.81
2017-11-25T03:13:53.040Z,9.87
2017-11-25T03:14:53.135Z,9.74
2017-11-25T03:15:53.026Z,9.8
2017-11-25T03:16:53.019Z,9.8
2017-11-25T03:17:53.369Z,9.8
2017-11-25T03:18:53.261Z,9.74
2017-11-25T03:19:53.252Z,9.7
2017-11-25T03:20:53.246Z,9.76
2017-11-25T03:21:53.262Z,9.7
2017-11-25T03:22:52.967Z,9.74
2017-11-25T03:23:52.958Z,9.66
2017-11-25T03:24:53.213Z,9.73
2017-11-25T03:25:52.967Z,9.8
2017-11-25T03:26:52.936Z,9.66
2017-11-25T03:27:53.183Z,9.72
2017-11-25T03:28:52.918Z,9.63
2017-11-25T03:29:52.913Z,9.63
2017-11-25T03:30:52.912Z,9.69
2017-11-25T03:31:52.896Z,9.66
2017-11-25T03:32:52.918Z,9.63
2017-11-25T03:33:53.148Z,9.66
2017-11-25T03:34:53.132Z,9.66
2017-11-25T03:35:53.120Z,9.63
2017-11-25T03:36:53.114Z,9.63
2017-11-25T03:37:52.838Z,9.64
2017-11-25T03:38:52.834Z,9.67
2017-11-25T03:39:53.090Z,9.67
2017-11-25T03:40:52.817Z,9.66
2017-11-25T03:41:52.819Z,9.56
2017-11-25T03:42:53.068Z,9.58
2017-11-25T03:43:53.052Z,9.49
2017-11-25T03:44:52.787Z,9.45
2017-11-25T03:45:53.044Z,9.47
2017-11-25T03:46:52.515Z,9.52
2017-11-25T03:47:52.765Z,9.45
2017-11-25T03:48:52.494Z,9.52
2017-11-25T03:49:52.485Z,9.52
2017-11-25T03:50:52.999Z,9.59
2017-11-25T03:51:53.090Z,9.55
2017-11-25T03:52:53.010Z,9.56
2017-11-25T03:53:52.716Z,9.59
2017-11-25T03:54:52.704Z,9.45
2017-11-25T03:55:52.696Z,9.42
2017-11-25T03:56:52.948Z,9.45
2017-11-25T03:57:52.946Z,9.42
2017-11-25T03:58:52.674Z,9.45
2017-11-25T03:59:52.920Z,9.39
2017-11-25T04:00:52.920Z,9.42
2017-11-25T04:01:52.396Z,9.45
2017-11-25T04:02:52.895Z,9.4
2017-11-25T04:03:53.114Z,9.47
2017-11-25T04:04:52.890Z,9.51
2017-11-25T04:05:52.877Z,9.51
2017-11-25T04:06:52.602Z,9.51
2017-11-25T04:07:52.596Z,9.45
2017-11-25T04:08:52.843Z,9.48
2017-11-25T04:09:52.844Z,9.36
2017-11-25T04:10:52.570Z,9.42
2017-11-25T04:11:52.566Z,9.29
2017-11-25T04:12:52.649Z,9.37
2017-11-25T04:13:52.807Z,9.36
2017-11-25T04:14:52.796Z,9.31
2017-11-25T04:15:52.785Z,9.31
2017-11-25T04:16:52.787Z,9.31
2017-11-25T04:17:52.771Z,9.3
2017-11-25T04:18:52.867Z,9.31
2017-11-25T04:19:52.238Z,9.34
2017-11-25T04:20:52.751Z,9.4
2017-11-25T04:21:52.748Z,9.47
2017-11-25T04:22:52.735Z,9.45
2017-11-25T04:23:52.567Z,9.49
2017-11-25T04:24:52.295Z,9.47
2017-11-25T04:25:52.442Z,9.47
2017-11-25T04:26:52.178Z,9.47
2017-11-25T04:27:52.699Z,9.42
2017-11-25T04:28:52.687Z,9.45
2017-11-25T04:29:52.691Z,9.47
2017-11-25T04:30:52.672Z,9.44
2017-11-25T04:31:52.394Z,9.44
2017-11-25T04:32:52.386Z,9.49
2017-11-25T04:33:52.128Z,9.45
2017-11-25T04:34:52.370Z,9.44
2017-11-25T04:35:52.373Z,9.4
2017-11-25T04:36:52.615Z,9.42
2017-11-25T04:37:52.605Z,9.39
2017-11-25T04:38:52.603Z,9.44
2017-11-25T04:39:52.688Z,9.36
2017-11-25T04:40:52.582Z,9.44
2017-11-25T04:41:52.577Z,9.37
2017-11-25T04:42:52.565Z,9.4
2017-11-25T04:43:52.562Z,9.44
2017-11-25T04:44:52.675Z,9.44
2017-11-25T04:45:52.545Z,9.47
2017-11-25T04:46:52.010Z,9.47
2017-11-25T04:47:52.524Z,9.44
2017-11-25T04:48:52.506Z,9.47
2017-11-25T04:49:52.510Z,9.42
2017-11-25T04:50:52.237Z,9.39
2017-11-25T04:51:52.225Z,9.47
2017-11-25T04:52:52.223Z,9.45
2017-11-25T04:53:52.491Z,9.45
2017-11-25T04:54:52.472Z,9.47
2017-11-25T04:55:52.294Z,9.44
2017-11-25T04:56:52.449Z,9.54
2017-11-25T04:57:52.179Z,9.54
2017-11-25T04:58:52.428Z,9.49
2017-11-25T04:59:52.416Z,9.47
2017-11-25T05:00:52.413Z,9.44
2017-11-25T05:01:52.416Z,9.45
2017-11-25T05:02:52.397Z,9.49
2017-11-25T05:03:52.124Z,9.58
2017-11-25T05:04:52.128Z,9.55
2017-11-25T05:05:52.369Z,9.56
2017-11-25T05:06:52.364Z,9.58
2017-11-25T05:07:52.359Z,9.52
2017-11-25T05:08:52.361Z,9.58
2017-11-25T05:09:52.332Z,9.55
2017-11-25T05:10:52.071Z,9.59
2017-11-25T05:11:52.321Z,9.62
2017-11-25T05:12:52.313Z,9.52
2017-11-25T05:13:52.328Z,9.55
2017-11-25T05:14:52.392Z,9.51
2017-11-25T05:15:52.029Z,9.51
2017-11-25T05:16:52.379Z,9.54
2017-11-25T05:17:52.013Z,9.45
2017-11-25T05:18:52.267Z,9.45
2017-11-25T05:19:51.737Z,9.44
2017-11-25T05:20:51.984Z,9.48
2017-11-25T05:21:52.237Z,9.56
2017-11-25T05:22:51.971Z,9.54
2017-11-25T05:23:52.234Z,9.55
2017-11-25T05:24:52.213Z,9.63
2017-11-25T05:25:52.217Z,9.56
2017-11-25T05:26:51.934Z,9.56
2017-11-25T05:27:51.933Z,9.55
2017-11-25T05:28:52.017Z,9.59
2017-11-25T05:29:51.915Z,9.52
2017-11-25T05:30:52.167Z,9.56
2017-11-25T05:31:51.901Z,9.55
2017-11-25T05:32:51.633Z,9.58
2017-11-25T05:33:51.881Z,9.59
2017-11-25T05:34:52.127Z,9.59
2017-11-25T05:35:52.122Z,9.56
2017-11-25T05:36:51.865Z,9.63
2017-11-25T05:37:52.104Z,9.52
2017-11-25T05:38:52.096Z,9.49
2017-11-25T05:39:52.094Z,9.54
2017-11-25T05:40:52.075Z,9.59
2017-11-25T05:41:52.071Z,9.58
2017-11-25T05:42:51.801Z,9.55
2017-11-25T05:43:52.297Z,9.59
2017-11-25T05:44:51.890Z,9.52
2017-11-25T05:45:52.039Z,9.55
2017-11-25T05:46:52.026Z,9.58
2017-11-25T05:47:52.032Z,9.54
2017-11-25T05:48:52.019Z,9.58
2017-11-25T05:49:51.746Z,9.52
2017-11-25T05:50:51.481Z,9.48
2017-11-25T05:51:51.990Z,9.51
2017-11-25T05:52:51.984Z,9.47
2017-11-25T05:53:51.723Z,9.39
2017-11-25T05:54:51.966Z,9.47
2017-11-25T05:55:52.049Z,9.44
2017-11-25T05:56:51.682Z,9.52
2017-11-25T05:57:51.677Z,9.39
2017-11-25T05:58:51.932Z,9.33
2017-11-25T05:59:51.662Z,9.29
2017-11-25T06:00:51.657Z,9.29
2017-11-25T06:01:52.002Z,9.33
2017-11-25T06:02:51.640Z,9.42
2017-11-25T06:03:51.629Z,9.36
2017-11-25T06:04:51.876Z,9.37
2017-11-25T06:05:51.873Z,9.33
2017-11-25T06:06:51.959Z,9.37
2017-11-25T06:07:51.600Z,9.42
2017-11-25T06:08:51.589Z,9.29
2017-11-25T06:09:51.678Z,9.29
2017-11-25T06:10:51.827Z,9.26
2017-11-25T06:11:51.929Z,9.29
2017-11-25T06:12:51.552Z,9.19
2017-11-25T06:13:51.905Z,9.27
2017-11-25T06:14:51.536Z,9.26
2017-11-25T06:15:51.785Z,9.26
2017-11-25T06:16:51.520Z,9.19
2017-11-25T06:17:51.780Z,9.22
2017-11-25T06:18:51.860Z,9.26
2017-11-25T06:19:51.748Z,9.26
2017-11-25T06:20:51.749Z,9.3
2017-11-25T06:21:51.737Z,9.26
2017-11-25T06:22:51.472Z,9.24
2017-11-25T06:23:51.827Z,9.19
2017-11-25T06:24:51.712Z,9.24
2017-11-25T06:25:51.709Z,9.13
2017-11-25T06:26:51.693Z,9.15
2017-11-25T06:27:51.792Z,9
2017-11-25T06:28:51.677Z,9.03
2017-11-25T06:29:51.409Z,9
2017-11-25T06:30:51.402Z,8.95
2017-11-25T06:31:51.658Z,8.99
2017-11-25T06:32:51.440Z,8.96
2017-11-25T06:33:51.475Z,9.02
2017-11-25T06:34:51.378Z,8.97
2017-11-25T06:35:51.358Z,9.08
2017-11-25T06:36:51.712Z,9.09
2017-11-25T06:37:51.602Z,9.03
2017-11-25T06:38:51.600Z,8.95
2017-11-25T06:39:51.611Z,9.02
2017-11-25T06:40:51.574Z,9.09
2017-11-25T06:41:51.570Z,8.99
2017-11-25T06:42:51.300Z,9.02
2017-11-25T06:43:51.550Z,9
2017-11-25T06:44:51.284Z,9.02
2017-11-25T06:45:51.537Z,9.05
2017-11-25T06:46:51.276Z,9.08
2017-11-25T06:47:51.260Z,9.05
2017-11-25T06:48:51.512Z,9.09
2017-11-25T06:49:51.246Z,9.09
2017-11-25T06:50:51.494Z,9.03
2017-11-25T06:51:51.483Z,8.92
2017-11-25T06:52:51.585Z,9.02
2017-11-25T06:53:51.211Z,9
2017-11-25T06:54:51.206Z,8.99
2017-11-25T06:55:51.480Z,9
2017-11-25T06:56:51.450Z,9.05
2017-11-25T06:57:51.445Z,9.13
2017-11-25T06:58:51.526Z,9.09
2017-11-25T06:59:51.419Z,9.19
2017-11-25T07:00:50.903Z,9.19
2017-11-25T07:01:51.401Z,9.21
2017-11-25T07:02:51.133Z,9.21
2017-11-25T07:03:51.397Z,9.22
2017-11-25T07:04:51.391Z,9.29
2017-11-25T07:05:51.369Z,9.27
2017-11-25T07:06:51.102Z,9.37
2017-11-25T07:07:51.096Z,9.31
2017-11-25T07:08:51.444Z,9.3
2017-11-25T07:09:51.080Z,9.29
2017-11-25T07:10:51.080Z,9.27
2017-11-25T07:11:51.421Z,9.24
2017-11-25T07:12:51.313Z,9.21
2017-11-25T07:13:51.299Z,9.22
2017-11-25T07:14:51.309Z,9.18
2017-11-25T07:15:51.028Z,9.24
2017-11-25T07:16:51.274Z,9.16
2017-11-25T07:17:51.370Z,9.16
2017-11-25T07:18:51.000Z,9.19
2017-11-25T07:19:50.996Z,9.29
2017-11-25T07:20:51.240Z,9.27
2017-11-25T07:21:51.230Z,9.3
2017-11-25T07:22:51.235Z,9.18
2017-11-25T07:23:50.957Z,9.27
2017-11-25T07:24:51.048Z,9.26
2017-11-25T07:25:51.211Z,9.19
2017-11-25T07:26:51.293Z,9.27
2017-11-25T07:27:51.185Z,9.24
2017-11-25T07:28:51.185Z,9.31
2017-11-25T07:29:50.911Z,9.29
2017-11-25T07:30:50.906Z,9.31
2017-11-25T07:31:51.151Z,9.39
2017-11-25T07:32:50.886Z,9.31
2017-11-25T07:33:51.138Z,9.37
2017-11-25T07:34:51.123Z,9.42
2017-11-25T07:35:51.119Z,9.34
2017-11-25T07:36:51.106Z,9.4
2017-11-25T07:37:50.941Z,9.37
2017-11-25T07:38:50.847Z,9.48
2017-11-25T07:39:50.825Z,9.49
2017-11-25T07:40:51.087Z,9.52
2017-11-25T07:41:51.075Z,9.45
2017-11-25T07:42:51.056Z,9.47
2017-11-25T07:43:50.792Z,9.44
2017-11-25T07:44:51.044Z,9.37
2017-11-25T07:45:50.776Z,9.4
2017-11-25T07:46:51.024Z,9.37
2017-11-25T07:47:50.755Z,9.37
2017-11-25T07:48:51.008Z,9.4
2017-11-25T07:49:50.738Z,9.33
2017-11-25T07:50:50.984Z,9.34
2017-11-25T07:51:50.993Z,9.3
2017-11-25T07:52:50.969Z,9.29
2017-11-25T07:53:50.443Z,9.3
2017-11-25T07:54:50.959Z,9.29
2017-11-25T07:55:50.952Z,9.11
2017-11-25T07:56:50.948Z,9.18
2017-11-25T07:57:50.933Z,9.16
2017-11-25T07:58:50.923Z,9.03
2017-11-25T07:59:51.014Z,8.99
2017-11-25T08:00:50.907Z,8.96
2017-11-25T08:01:50.893Z,8.92
2017-11-25T08:02:50.892Z,8.87
2017-11-25T08:03:50.979Z,8.87
2017-11-25T08:04:50.712Z,8.9
2017-11-25T08:05:50.859Z,8.81
2017-11-25T08:06:50.854Z,8.75
2017-11-25T08:07:50.842Z,8.74
2017-11-25T08:08:50.838Z,8.72
2017-11-25T08:09:50.826Z,8.63
2017-11-25T08:10:50.559Z,8.61
2017-11-25T08:11:50.814Z,8.6
2017-11-25T08:12:50.539Z,8.56
2017-11-25T08:13:50.995Z,8.66
2017-11-25T08:14:50.785Z,8.63
2017-11-25T08:15:50.523Z,8.68
2017-11-25T08:16:50.502Z,8.56
2017-11-25T08:17:50.776Z,8.59
2017-11-25T08:18:50.489Z,8.6
2017-11-25T08:19:50.735Z,8.59
2017-11-25T08:20:50.470Z,8.6
2017-11-25T08:21:50.460Z,8.6
2017-11-25T08:22:50.451Z,8.6
2017-11-25T08:23:50.448Z,8.54
2017-11-25T08:24:50.806Z,8.56
2017-11-25T08:25:50.168Z,8.63
2017-11-25T08:26:50.678Z,8.69
2017-11-25T08:27:50.668Z,8.66
2017-11-25T08:28:50.661Z,8.72
2017-11-25T08:29:50.393Z,8.75
2017-11-25T08:30:50.125Z,8.77
2017-11-25T08:31:50.633Z,8.66
2017-11-25T08:32:50.647Z,8.71
2017-11-25T08:33:50.355Z,8.77
2017-11-25T08:34:50.347Z,8.75
2017-11-25T08:35:50.341Z,8.71
2017-11-25T08:36:50.328Z,8.71
2017-11-25T08:37:50.316Z,8.78
2017-11-25T08:38:50.417Z,8.74
2017-11-25T08:39:50.044Z,8.69
2017-11-25T08:40:50.336Z,8.61
2017-11-25T08:41:50.286Z,8.61
2017-11-25T08:42:50.540Z,8.56
2017-11-25T08:43:50.369Z,8.57
2017-11-25T08:44:50.264Z,8.41
2017-11-25T08:45:50.509Z,8.49
2017-11-25T08:46:50.501Z,8.39
2017-11-25T08:47:50.492Z,8.44
2017-11-25T08:48:50.484Z,8.36
2017-11-25T08:49:50.478Z,8.44
2017-11-25T08:50:50.207Z,8.44
2017-11-25T08:51:50.458Z,8.42
2017-11-25T08:52:50.548Z,8.38
2017-11-25T08:53:50.180Z,8.44
2017-11-25T08:54:50.436Z,8.49
2017-11-25T08:55:49.906Z,8.39
2017-11-25T08:56:50.412Z,8.39
2017-11-25T08:57:50.150Z,8.44
2017-11-25T08:58:50.136Z,8.36
2017-11-25T08:59:50.126Z,8.34
2017-11-25T09:00:50.384Z,8.36
2017-11-25T09:01:50.374Z,8.31
2017-11-25T09:02:50.104Z,8.38
2017-11-25T09:03:50.355Z,8.34
2017-11-25T09:04:50.344Z,8.44
2017-11-25T09:05:50.076Z,8.35
2017-11-25T09:06:49.809Z,8.34
2017-11-25T09:07:49.800Z,8.49
2017-11-25T09:08:50.051Z,8.45
2017-11-25T09:09:50.324Z,8.38
2017-11-25T09:10:50.031Z,8.38
2017-11-25T09:11:50.025Z,8.38
2017-11-25T09:12:50.019Z,8.35
2017-11-25T09:13:50.261Z,8.31
2017-11-25T09:14:50.258Z,8.34
2017-11-25T09:15:49.996Z,8.42
2017-11-25T09:16:50.088Z,8.49
2017-11-25T09:17:50.231Z,8.45
2017-11-25T09:18:50.237Z,8.42
2017-11-25T09:19:50.312Z,8.46
2017-11-25T09:20:49.941Z,8.49
2017-11-25T09:21:50.199Z,8.44
2017-11-25T09:22:50.193Z,8.46
2017-11-25T09:23:49.916Z,8.45
2017-11-25T09:24:50.179Z,8.39
2017-11-25T09:25:49.902Z,8.44
2017-11-25T09:26:49.898Z,8.34
2017-11-25T09:27:50.143Z,8.34
2017-11-25T09:28:50.137Z,8.31
2017-11-25T09:29:50.128Z,8.26
2017-11-25T09:30:50.120Z,8.26
2017-11-25T09:31:50.110Z,8.26
2017-11-25T09:32:50.104Z,8.31
2017-11-25T09:33:49.833Z,8.2
2017-11-25T09:34:50.095Z,8.21
2017-11-25T09:35:50.072Z,8.18
2017-11-25T09:36:50.081Z,8.24
2017-11-25T09:37:50.171Z,8.16
2017-11-25T09:38:49.903Z,8.17
2017-11-25T09:39:50.044Z,8.21
2017-11-25T09:40:50.040Z,8.21
2017-11-25T09:41:49.766Z,8.18
2017-11-25T09:42:50.015Z,8.11
2017-11-25T09:43:49.752Z,8.06
2017-11-25T09:44:50.018Z,8.09
2017-11-25T09:45:49.472Z,8.06
2017-11-25T09:46:49.987Z,8.16
2017-11-25T09:47:50.077Z,8.11
2017-11-25T09:48:49.961Z,8.21
2017-11-25T09:49:49.900Z,8.17
2017-11-25T09:50:49.947Z,8.23
2017-11-25T09:51:49.941Z,8.21
2017-11-25T09:52:49.929Z,8.24
2017-11-25T09:53:49.667Z,8.34
2017-11-25T09:54:49.911Z,8.35
2017-11-25T09:55:49.645Z,8.24
2017-11-25T09:56:49.894Z,8.21
2017-11-25T09:57:49.633Z,8.17
2017-11-25T09:58:49.875Z,8.24
2017-11-25T09:59:49.873Z,8.28
2017-11-25T10:00:49.605Z,8.23
2017-11-25T10:01:49.857Z,8.34
2017-11-25T10:02:49.844Z,8.34
2017-11-25T10:03:49.945Z,8.34
2017-11-25T10:04:49.829Z,8.2
2017-11-25T10:05:49.819Z,8.18
2017-11-25T10:06:49.814Z,8.23
2017-11-25T10:07:49.813Z,8.03
2017-11-25T10:08:49.795Z,8.05
2017-11-25T10:09:49.787Z,7.84
2017-11-25T10:10:49.516Z,7.85
2017-11-25T10:11:49.786Z,7.8
2017-11-25T10:12:49.763Z,7.67
2017-11-25T10:13:49.493Z,7.67
2017-11-25T10:14:49.736Z,7.62
2017-11-25T10:15:49.780Z,7.58
2017-11-25T10:16:49.470Z,7.58
2017-11-25T10:17:49.714Z,7.56
2017-11-25T10:18:49.545Z,7.44
2017-11-25T10:19:49.439Z,7.46
2017-11-25T10:20:49.430Z,7.44
2017-11-25T10:21:49.678Z,7.39
2017-11-25T10:22:49.410Z,7.36
2017-11-25T10:23:49.668Z,7.32
2017-11-25T10:24:49.503Z,7.36
2017-11-25T10:25:49.388Z,7.36
2017-11-25T10:26:49.635Z,7.36
2017-11-25T10:27:49.378Z,7.31
2017-11-25T10:28:49.629Z,7.31
2017-11-25T10:29:49.639Z,7.26
2017-11-25T10:30:49.602Z,7.18
2017-11-25T10:31:49.694Z,7.19
2017-11-25T10:32:49.582Z,7.11
2017-11-25T10:33:49.677Z,7.15
2017-11-25T10:34:49.311Z,7.22
2017-11-25T10:35:49.301Z,7.08
2017-11-25T10:36:49.566Z,7.18
2017-11-25T10:37:49.541Z,7.1
2017-11-25T10:38:49.528Z,7.1
2017-11-25T10:39:49.534Z,7.1
2017-11-25T10:40:49.509Z,7.04
2017-11-25T10:41:49.242Z,7.07
2017-11-25T10:42:49.250Z,7.08
2017-11-25T10:43:49.329Z,7.11
2017-11-25T10:44:49.477Z,6.95
2017-11-25T10:45:49.569Z,6.95
2017-11-25T10:46:49.467Z,6.82
2017-11-25T10:47:49.454Z,6.75
2017-11-25T10:48:49.442Z,6.68
2017-11-25T10:49:49.446Z,6.67
2017-11-25T10:50:49.162Z,6.64
2017-11-25T10:51:49.517Z,6.64
2017-11-25T10:52:49.408Z,6.52
2017-11-25T10:53:49.136Z,6.43
2017-11-25T10:54:49.393Z,6.41
2017-11-25T10:55:49.223Z,6.29
2017-11-25T10:56:49.367Z,6.28
2017-11-25T10:57:49.364Z,6.12
2017-11-25T10:58:49.354Z,6.06
2017-11-25T10:59:49.342Z,6.01
2017-11-25T11:00:49.338Z,6.02
2017-11-25T11:01:49.071Z,5.88
2017-11-25T11:02:49.154Z,5.92
2017-11-25T11:03:49.051Z,5.92
2017-11-25T11:04:49.298Z,6.01
2017-11-25T11:05:49.292Z,5.91
2017-11-25T11:06:49.015Z,5.95
2017-11-25T11:07:49.270Z,5.92
2017-11-25T11:08:48.999Z,5.97
2017-11-25T11:09:49.265Z,5.99
2017-11-25T11:10:49.240Z,5.98
2017-11-25T11:11:48.972Z,6.05
2017-11-25T11:12:49.226Z,6.02
2017-11-25T11:13:49.216Z,6.01
2017-11-25T11:14:48.947Z,6.12
2017-11-25T11:15:49.229Z,6.13
2017-11-25T11:16:49.190Z,6.16
2017-11-25T11:17:49.176Z,6.19
2017-11-25T11:18:48.912Z,6.22
2017-11-25T11:19:49.165Z,6.34
2017-11-25T11:20:48.896Z,6.19
2017-11-25T11:21:49.147Z,6.17
2017-11-25T11:22:48.872Z,6.28
2017-11-25T11:23:49.126Z,6.29
2017-11-25T11:24:48.855Z,6.29
2017-11-25T11:25:49.118Z,6.12
2017-11-25T11:26:48.838Z,6.29
2017-11-25T11:27:48.826Z,6.29
2017-11-25T11:28:49.078Z,6.15
2017-11-25T11:29:48.842Z,6.05
2017-11-25T11:30:49.059Z,6.09
2017-11-25T11:31:48.797Z,6.17
2017-11-25T11:32:48.782Z,6.29
2017-11-25T11:33:49.029Z,6.13
2017-11-25T11:34:48.759Z,6.28
2017-11-25T11:35:49.023Z,6.31
2017-11-25T11:36:48.586Z,6.26
2017-11-25T11:37:48.996Z,6.32
2017-11-25T11:38:48.724Z,6.39
2017-11-25T11:39:48.824Z,6.5
2017-11-25T11:40:48.451Z,6.43
2017-11-25T11:41:48.963Z,6.41
2017-11-25T11:42:48.998Z,6.54
2017-11-25T11:43:48.939Z,6.39
2017-11-25T11:44:48.412Z,6.43
2017-11-25T11:45:48.669Z,6.43
2017-11-25T11:46:48.654Z,6.52
2017-11-25T11:47:48.932Z,6.49
2017-11-25T11:48:48.894Z,6.47
2017-11-25T11:49:48.896Z,6.47
2017-11-25T11:50:48.617Z,6.53
2017-11-25T11:51:48.867Z,6.59
2017-11-25T11:52:48.979Z,6.68
2017-11-25T11:53:48.855Z,6.68
2017-11-25T11:54:48.853Z,6.49
2017-11-25T11:55:48.588Z,6.64
2017-11-25T11:56:48.823Z,6.6
2017-11-25T11:57:48.294Z,6.7
2017-11-25T11:58:48.904Z,6.68
2017-11-25T11:59:48.803Z,6.7
2017-11-25T12:00:48.531Z,6.7
2017-11-25T12:01:48.520Z,6.64
2017-11-25T12:02:48.516Z,6.59
2017-11-25T12:03:48.864Z,6.6
2017-11-25T12:04:48.753Z,6.64
2017-11-25T12:05:48.741Z,6.62
2017-11-25T12:06:48.216Z,6.65
2017-11-25T12:07:48.728Z,6.71
2017-11-25T12:08:48.817Z,6.68
2017-11-25T12:09:48.547Z,6.7
2017-11-25T12:10:48.438Z,6.72
2017-11-25T12:11:48.791Z,6.67
2017-11-25T12:12:48.424Z,6.6
2017-11-25T12:13:48.675Z,6.59
2017-11-25T12:14:48.666Z,6.65
2017-11-25T12:15:48.412Z,6.56
2017-11-25T12:16:48.782Z,6.47
2017-11-25T12:17:48.478Z,6.44
2017-11-25T12:18:48.635Z,6.59
2017-11-25T12:19:48.360Z,6.64
2017-11-25T12:20:48.608Z,6.64
2017-11-25T12:21:48.340Z,6.67
2017-11-25T12:22:48.708Z,6.64
2017-11-25T12:23:48.322Z,6.71
2017-11-25T12:24:48.575Z,6.87
2017-11-25T12:25:48.305Z,6.71
2017-11-25T12:26:48.562Z,6.75
2017-11-25T12:27:48.562Z,6.74
2017-11-25T12:28:48.282Z,6.71
2017-11-25T12:29:48.271Z,6.77
2017-11-25T12:30:48.523Z,6.72
2017-11-25T12:31:48.516Z,6.71
2017-11-25T12:32:48.504Z,6.74
2017-11-25T12:33:48.499Z,6.71
2017-11-25T12:34:48.227Z,6.65
2017-11-25T12:35:48.480Z,6.7
2017-11-25T12:36:48.215Z,6.56
2017-11-25T12:37:48.461Z,6.6
2017-11-25T12:38:48.459Z,6.65
2017-11-25T12:39:48.438Z,6.62
2017-11-25T12:40:48.432Z,6.57
2017-11-25T12:41:48.163Z,6.52
2017-11-25T12:42:48.156Z,6.47
2017-11-25T12:43:48.417Z,6.53
2017-11-25T12:44:48.404Z,6.49
2017-11-25T12:45:47.870Z,6.52
2017-11-25T12:46:48.387Z,6.47
2017-11-25T12:47:48.375Z,6.49
2017-11-25T12:48:48.360Z,6.52
2017-11-25T12:49:48.351Z,6.6
2017-11-25T12:50:48.083Z,6.64
2017-11-25T12:51:48.336Z,6.64
2017-11-25T12:52:48.342Z,6.6
2017-11-25T12:53:48.324Z,6.67
2017-11-25T12:54:48.048Z,6.64
2017-11-25T12:55:48.042Z,6.64
2017-11-25T12:56:48.308Z,6.67
2017-11-25T12:57:48.295Z,6.59
2017-11-25T12:58:48.285Z,6.54
2017-11-25T12:59:48.270Z,6.62
2017-11-25T13:00:47.993Z,6.59
2017-11-25T13:01:47.987Z,6.67
2017-11-25T13:02:48.236Z,6.68
2017-11-25T13:03:47.975Z,6.64
2017-11-25T13:04:48.217Z,6.62
2017-11-25T13:05:48.213Z,6.65
2017-11-25T13:06:48.198Z,6.59
2017-11-25T13:07:47.933Z,6.68
2017-11-25T13:08:47.930Z,6.6
2017-11-25T13:09:48.176Z,6.64
2017-11-25T13:10:48.164Z,6.64
2017-11-25T13:11:48.153Z,6.71
2017-11-25T13:12:47.892Z,6.6
2017-11-25T13:13:47.875Z,6.62
2017-11-25T13:14:47.610Z,6.68
2017-11-25T13:15:47.858Z,6.62
2017-11-25T13:16:47.858Z,6.62